sensor_id;sensor_type;location;lat;lon;timestamp;pressure;altitude;pressure_sealevel;temperature;humidity
12757;BME280;31601;48.042;12.240;2023-02-02T00:00:15;96553.50;;;4.99;65.21
12757;BME280;31601;48.042;12.240;2023-02-02T00:02:41;96558.16;;;5.06;64.99
12757;BME280;31601;48.042;12.240;2023-02-02T00:05:11;96544.13;;;4.59;65.80
12757;BME280;31601;48.042;12.240;2023-02-02T00:07:40;96553.69;;;4.88;65.71
12757;BME280;31601;48.042;12.240;2023-02-02T00:10:09;96547.22;;;4.92;65.35
12757;BME280;31601;48.042;12.240;2023-02-02T00:12:36;96550.34;;;5.06;65.02
12757;BME280;31601;48.042;12.240;2023-02-02T00:15:03;96549.72;;;4.84;66.00
12757;BME280;31601;48.042;12.240;2023-02-02T00:17:30;96546.03;;;4.87;65.94
12757;BME280;31601;48.042;12.240;2023-02-02T00:19:56;96554.22;;;4.92;65.31
12757;BME280;31601;48.042;12.240;2023-02-02T00:22:22;96546.38;;;5.01;64.66
12757;BME280;31601;48.042;12.240;2023-02-02T00:24:49;96550.25;;;4.97;64.85
12757;BME280;31601;48.042;12.240;2023-02-02T00:27:17;96542.00;;;5.02;64.73
12757;BME280;31601;48.042;12.240;2023-02-02T00:29:43;96535.63;;;5.24;64.29
12757;BME280;31601;48.042;12.240;2023-02-02T00:32:13;96541.75;;;5.33;63.84
12757;BME280;31601;48.042;12.240;2023-02-02T00:34:39;96537.09;;;4.99;64.23
12757;BME280;31601;48.042;12.240;2023-02-02T00:37:06;96538.00;;;5.17;63.44
12757;BME280;31601;48.042;12.240;2023-02-02T00:39:32;96539.03;;;5.25;63.40
12757;BME280;31601;48.042;12.240;2023-02-02T00:41:59;96535.16;;;5.01;63.61
12757;BME280;31601;48.042;12.240;2023-02-02T00:44:27;96538.56;;;5.01;63.67
12757;BME280;31601;48.042;12.240;2023-02-02T00:47:11;96535.63;;;5.24;63.28
12757;BME280;31601;48.042;12.240;2023-02-02T00:49:37;96538.56;;;5.11;63.74
12757;BME280;31601;48.042;12.240;2023-02-02T00:52:04;96535.38;;;5.17;63.62
12757;BME280;31601;48.042;12.240;2023-02-02T00:54:30;96532.47;;;5.30;63.27
12757;BME280;31601;48.042;12.240;2023-02-02T00:56:57;96531.72;;;5.10;64.16
12757;BME280;31601;48.042;12.240;2023-02-02T00:59:23;96527.88;;;5.14;64.41
12757;BME280;31601;48.042;12.240;2023-02-02T01:01:51;96525.56;;;5.01;64.45
12757;BME280;31601;48.042;12.240;2023-02-02T01:04:17;96521.66;;;5.25;64.24
12757;BME280;31601;48.042;12.240;2023-02-02T01:06:44;96526.09;;;5.15;64.69
12757;BME280;31601;48.042;12.240;2023-02-02T01:09:10;96513.41;;;5.02;64.73
12757;BME280;31601;48.042;12.240;2023-02-02T01:11:37;96521.41;;;5.18;64.64
12757;BME280;31601;48.042;12.240;2023-02-02T01:14:04;96516.81;;;5.02;65.04
12757;BME280;31601;48.042;12.240;2023-02-02T01:16:30;96523.09;;;5.10;64.34
12757;BME280;31601;48.042;12.240;2023-02-02T01:18:58;96522.41;;;5.08;64.36
12757;BME280;31601;48.042;12.240;2023-02-02T01:21:25;96523.00;;;4.92;64.88
12757;BME280;31601;48.042;12.240;2023-02-02T01:23:51;96521.25;;;5.20;64.34
12757;BME280;31601;48.042;12.240;2023-02-02T01:26:18;96518.63;;;4.92;64.59
12757;BME280;31601;48.042;12.240;2023-02-02T01:28:44;96518.28;;;5.15;64.17
12757;BME280;31601;48.042;12.240;2023-02-02T01:31:13;96509.25;;;5.19;63.62
12757;BME280;31601;48.042;12.240;2023-02-02T01:33:40;96515.88;;;4.94;63.91
12757;BME280;31601;48.042;12.240;2023-02-02T01:36:12;96517.47;;;5.05;63.91
12757;BME280;31601;48.042;12.240;2023-02-02T01:38:38;96517.75;;;5.11;63.84
12757;BME280;31601;48.042;12.240;2023-02-02T01:41:06;96515.88;;;5.04;63.97
12757;BME280;31601;48.042;12.240;2023-02-02T01:43:51;96510.59;;;4.76;64.74
12757;BME280;31601;48.042;12.240;2023-02-02T01:46:20;96508.41;;;5.18;63.85
12757;BME280;31601;48.042;12.240;2023-02-02T01:48:49;96503.28;;;5.36;63.59
12757;BME280;31601;48.042;12.240;2023-02-02T01:51:22;96500.69;;;4.99;64.01
12757;BME280;31601;48.042;12.240;2023-02-02T01:53:52;96484.03;;;5.19;63.60
12757;BME280;31601;48.042;12.240;2023-02-02T01:56:23;96490.88;;;5.20;64.09
12757;BME280;31601;48.042;12.240;2023-02-02T01:58:52;96481.78;;;5.07;64.12
12757;BME280;31601;48.042;12.240;2023-02-02T02:01:18;96486.41;;;5.13;64.31
12757;BME280;31601;48.042;12.240;2023-02-02T02:03:45;96488.44;;;5.09;64.36
12757;BME280;31601;48.042;12.240;2023-02-02T02:06:14;96469.88;;;5.04;64.65
12757;BME280;31601;48.042;12.240;2023-02-02T02:08:48;96470.94;;;5.11;64.06
12757;BME280;31601;48.042;12.240;2023-02-02T02:11:16;96482.34;;;5.28;63.84
12757;BME280;31601;48.042;12.240;2023-02-02T02:13:43;96479.91;;;5.27;63.86
12757;BME280;31601;48.042;12.240;2023-02-02T02:16:42;96462.72;;;5.06;64.62
12757;BME280;31601;48.042;12.240;2023-02-02T02:19:25;96471.59;;;5.13;64.09
12757;BME280;31601;48.042;12.240;2023-02-02T02:21:58;96477.03;;;5.20;63.73
12757;BME280;31601;48.042;12.240;2023-02-02T02:25:15;96478.00;;;4.81;63.96
12757;BME280;31601;48.042;12.240;2023-02-02T02:28:33;96478.50;;;5.32;62.92
12757;BME280;31601;48.042;12.240;2023-02-02T02:31:36;96463.09;;;5.39;63.02
12757;BME280;31601;48.042;12.240;2023-02-02T02:34:07;96463.00;;;5.13;62.90
12757;BME280;31601;48.042;12.240;2023-02-02T02:36:42;96452.31;;;5.06;63.19
12757;BME280;31601;48.042;12.240;2023-02-02T02:39:18;96472.28;;;5.15;63.23
12757;BME280;31601;48.042;12.240;2023-02-02T02:41:49;96471.81;;;4.92;63.29
12757;BME280;31601;48.042;12.240;2023-02-02T02:44:18;96473.13;;;5.06;63.48
12757;BME280;31601;48.042;12.240;2023-02-02T02:46:48;96472.63;;;5.02;64.06
12757;BME280;31601;48.042;12.240;2023-02-02T02:49:15;96471.31;;;5.16;63.55
12757;BME280;31601;48.042;12.240;2023-02-02T02:51:45;96464.81;;;5.02;63.54
12757;BME280;31601;48.042;12.240;2023-02-02T02:54:14;96473.13;;;5.06;63.47
12757;BME280;31601;48.042;12.240;2023-02-02T02:56:51;96476.53;;;5.16;63.10
12757;BME280;31601;48.042;12.240;2023-02-02T02:59:27;96476.31;;;5.28;62.92
12757;BME280;31601;48.042;12.240;2023-02-02T03:02:07;96468.19;;;5.13;63.75
12757;BME280;31601;48.042;12.240;2023-02-02T03:04:45;96467.63;;;4.81;64.51
12757;BME280;31601;48.042;12.240;2023-02-02T03:07:20;96469.94;;;4.84;64.53
12757;BME280;31601;48.042;12.240;2023-02-02T03:09:50;96471.81;;;4.92;64.31
12757;BME280;31601;48.042;12.240;2023-02-02T03:12:19;96459.91;;;5.27;62.91
12757;BME280;31601;48.042;12.240;2023-02-02T03:14:46;96468.06;;;5.14;63.30
12757;BME280;31601;48.042;12.240;2023-02-02T03:17:13;96469.66;;;5.15;63.31
12757;BME280;31601;48.042;12.240;2023-02-02T03:19:40;96451.22;;;5.09;63.45
12757;BME280;31601;48.042;12.240;2023-02-02T03:22:07;96475.28;;;5.20;62.97
12757;BME280;31601;48.042;12.240;2023-02-02T03:24:33;96468.66;;;4.98;64.14
12757;BME280;31601;48.042;12.240;2023-02-02T03:26:59;96465.47;;;5.14;64.14
12757;BME280;31601;48.042;12.240;2023-02-02T03:29:27;96466.16;;;5.34;63.77
12757;BME280;31601;48.042;12.240;2023-02-02T03:31:53;96466.50;;;5.22;63.15
12757;BME280;31601;48.042;12.240;2023-02-02T03:34:21;96470.97;;;5.29;63.04
12757;BME280;31601;48.042;12.240;2023-02-02T03:36:48;96467.84;;;5.26;63.05
12757;BME280;31601;48.042;12.240;2023-02-02T03:39:14;96461.13;;;5.05;63.17
12757;BME280;31601;48.042;12.240;2023-02-02T03:41:41;96470.66;;;5.14;63.48
12757;BME280;31601;48.042;12.240;2023-02-02T03:44:07;96475.75;;;5.34;62.87
12757;BME280;31601;48.042;12.240;2023-02-02T03:46:34;96471.03;;;5.47;62.47
12757;BME280;31601;48.042;12.240;2023-02-02T03:49:00;96476.97;;;5.40;62.94
12757;BME280;31601;48.042;12.240;2023-02-02T03:51:28;96479.31;;;5.33;63.71
12757;BME280;31601;48.042;12.240;2023-02-02T03:53:54;96475.09;;;5.32;64.07
12757;BME280;31601;48.042;12.240;2023-02-02T03:56:21;96485.97;;;5.17;64.41
12757;BME280;31601;48.042;12.240;2023-02-02T03:58:49;96489.97;;;5.40;63.74
12757;BME280;31601;48.042;12.240;2023-02-02T04:01:15;96490.00;;;5.30;64.37
12757;BME280;31601;48.042;12.240;2023-02-02T04:03:42;96482.69;;;5.15;64.28
12757;BME280;31601;48.042;12.240;2023-02-02T04:06:10;96479.31;;;5.33;63.96
12757;BME280;31601;48.042;12.240;2023-02-02T04:08:38;96485.44;;;5.42;63.70
12757;BME280;31601;48.042;12.240;2023-02-02T04:11:09;96489.63;;;5.25;63.98
12757;BME280;31601;48.042;12.240;2023-02-02T04:13:35;96486.16;;;5.34;63.64
12757;BME280;31601;48.042;12.240;2023-02-02T04:16:02;96488.53;;;5.45;63.52
12757;BME280;31601;48.042;12.240;2023-02-02T04:18:28;96496.94;;;5.11;64.05
12757;BME280;31601;48.042;12.240;2023-02-02T04:20:56;96493.91;;;5.44;63.80
12757;BME280;31601;48.042;12.240;2023-02-02T04:23:23;96490.13;;;5.28;63.78
12757;BME280;31601;48.042;12.240;2023-02-02T04:25:53;96489.13;;;5.39;63.88
12757;BME280;31601;48.042;12.240;2023-02-02T04:28:19;96487.81;;;5.35;63.94
12757;BME280;31601;48.042;12.240;2023-02-02T04:30:48;96494.47;;;5.37;64.17
12757;BME280;31601;48.042;12.240;2023-02-02T04:33:14;96498.44;;;5.14;65.00
12757;BME280;31601;48.042;12.240;2023-02-02T04:35:41;96491.75;;;5.11;64.50
12757;BME280;31601;48.042;12.240;2023-02-02T04:38:08;96498.59;;;5.40;63.83
12757;BME280;31601;48.042;12.240;2023-02-02T04:40:37;96492.22;;;5.25;64.37
12757;BME280;31601;48.042;12.240;2023-02-02T04:43:05;96489.09;;;5.49;63.73
12757;BME280;31601;48.042;12.240;2023-02-02T04:45:31;96494.34;;;5.39;63.35
12757;BME280;31601;48.042;12.240;2023-02-02T04:47:58;96497.47;;;5.15;64.72
12757;BME280;31601;48.042;12.240;2023-02-02T04:50:24;96483.19;;;5.29;63.98
12757;BME280;31601;48.042;12.240;2023-02-02T04:52:51;96487.50;;;5.38;63.65
12757;BME280;31601;48.042;12.240;2023-02-02T04:55:17;96487.22;;;5.41;64.11
12757;BME280;31601;48.042;12.240;2023-02-02T04:57:44;96493.22;;;5.42;63.74
12757;BME280;31601;48.042;12.240;2023-02-02T05:00:13;96499.09;;;5.44;63.78
12757;BME280;31601;48.042;12.240;2023-02-02T05:02:40;96506.50;;;5.11;64.43
12757;BME280;31601;48.042;12.240;2023-02-02T05:05:10;96480.84;;;5.53;63.65
12757;BME280;31601;48.042;12.240;2023-02-02T05:07:37;96502.69;;;5.15;66.07
12757;BME280;31601;48.042;12.240;2023-02-02T05:10:05;96522.44;;;4.98;67.20
12757;BME280;31601;48.042;12.240;2023-02-02T05:12:32;96519.94;;;5.06;66.55
12757;BME280;31601;48.042;12.240;2023-02-02T05:14:59;96523.19;;;5.18;66.85
12757;BME280;31601;48.042;12.240;2023-02-02T05:17:29;96506.94;;;5.16;66.66
12757;BME280;31601;48.042;12.240;2023-02-02T05:19:55;96516.16;;;5.28;66.56
12757;BME280;31601;48.042;12.240;2023-02-02T05:22:22;96515.16;;;5.39;66.30
12757;BME280;31601;48.042;12.240;2023-02-02T05:24:48;96513.47;;;5.48;66.04
12757;BME280;31601;48.042;12.240;2023-02-02T05:27:14;96516.94;;;5.38;66.28
12757;BME280;31601;48.042;12.240;2023-02-02T05:29:41;96518.59;;;5.40;66.20
12757;BME280;31601;48.042;12.240;2023-02-02T05:32:07;96531.75;;;5.38;65.90
12757;BME280;31601;48.042;12.240;2023-02-02T05:34:35;96533.06;;;5.42;65.70
12757;BME280;31601;48.042;12.240;2023-02-02T05:37:01;96526.13;;;5.33;65.63
12757;BME280;31601;48.042;12.240;2023-02-02T05:39:28;96525.69;;;5.10;66.61
12757;BME280;31601;48.042;12.240;2023-02-02T05:41:54;96527.38;;;5.01;67.35
12757;BME280;31601;48.042;12.240;2023-02-02T05:44:21;96527.31;;;5.20;66.37
12757;BME280;31601;48.042;12.240;2023-02-02T05:46:47;96526.88;;;5.25;66.59
12757;BME280;31601;48.042;12.240;2023-02-02T05:49:14;96519.00;;;5.07;66.58
12757;BME280;31601;48.042;12.240;2023-02-02T05:51:44;96526.84;;;4.88;66.50
12757;BME280;31601;48.042;12.240;2023-02-02T05:54:12;96524.28;;;5.15;66.73
12757;BME280;31601;48.042;12.240;2023-02-02T05:56:43;96527.72;;;5.44;65.78
12757;BME280;31601;48.042;12.240;2023-02-02T05:59:09;96531.91;;;5.54;65.49
12757;BME280;31601;48.042;12.240;2023-02-02T06:01:38;96527.59;;;5.45;65.87
12757;BME280;31601;48.042;12.240;2023-02-02T06:04:04;96535.59;;;5.62;64.87
12757;BME280;31601;48.042;12.240;2023-02-02T06:06:31;96532.31;;;5.60;65.53
12757;BME280;31601;48.042;12.240;2023-02-02T06:09:01;96532.91;;;5.53;65.60
12757;BME280;31601;48.042;12.240;2023-02-02T06:11:27;96527.88;;;5.42;66.26
12757;BME280;31601;48.042;12.240;2023-02-02T06:13:54;96542.53;;;5.43;66.16
12757;BME280;31601;48.042;12.240;2023-02-02T06:16:21;96533.66;;;5.08;66.95
12757;BME280;31601;48.042;12.240;2023-02-02T06:18:47;96528.41;;;5.46;66.03
12757;BME280;31601;48.042;12.240;2023-02-02T06:21:13;96533.66;;;5.36;66.17
12757;BME280;31601;48.042;12.240;2023-02-02T06:23:40;96523.81;;;5.57;65.50
12757;BME280;31601;48.042;12.240;2023-02-02T06:26:14;96530.56;;;5.23;66.30
12757;BME280;31601;48.042;12.240;2023-02-02T06:28:40;96535.72;;;5.32;66.56
12757;BME280;31601;48.042;12.240;2023-02-02T06:31:08;96526.09;;;5.43;65.63
12757;BME280;31601;48.042;12.240;2023-02-02T06:33:35;96546.75;;;5.16;66.86
12757;BME280;31601;48.042;12.240;2023-02-02T06:36:04;96544.38;;;5.23;67.08
12757;BME280;31601;48.042;12.240;2023-02-02T06:38:31;96550.09;;;4.99;67.92
12757;BME280;31601;48.042;12.240;2023-02-02T06:40:58;96550.38;;;5.33;67.38
12757;BME280;31601;48.042;12.240;2023-02-02T06:43:26;96541.31;;;5.37;67.44
12757;BME280;31601;48.042;12.240;2023-02-02T06:45:53;96548.50;;;5.26;67.60
12757;BME280;31601;48.042;12.240;2023-02-02T06:48:19;96542.28;;;5.36;67.25
12757;BME280;31601;48.042;12.240;2023-02-02T06:50:46;96551.88;;;5.36;67.44
12757;BME280;31601;48.042;12.240;2023-02-02T06:53:12;96554.59;;;5.44;67.15
12757;BME280;31601;48.042;12.240;2023-02-02T06:55:40;96554.59;;;5.44;66.94
12757;BME280;31601;48.042;12.240;2023-02-02T06:58:07;96578.28;;;5.41;67.36
12757;BME280;31601;48.042;12.240;2023-02-02T07:00:34;96577.03;;;5.45;67.27
12757;BME280;31601;48.042;12.240;2023-02-02T07:03:02;96565.28;;;5.41;67.46
12757;BME280;31601;48.042;12.240;2023-02-02T07:05:29;96567.16;;;5.49;66.99
12757;BME280;31601;48.042;12.240;2023-02-02T07:07:55;96574.19;;;5.38;67.40
12757;BME280;31601;48.042;12.240;2023-02-02T07:10:22;96568.59;;;5.33;67.45
12757;BME280;31601;48.042;12.240;2023-02-02T07:12:48;96565.75;;;5.54;66.80
12757;BME280;31601;48.042;12.240;2023-02-02T07:15:15;96561.97;;;5.49;67.17
12757;BME280;31601;48.042;12.240;2023-02-02T07:17:43;96568.75;;;5.32;66.89
12757;BME280;31601;48.042;12.240;2023-02-02T07:20:10;96561.13;;;5.48;66.77
12757;BME280;31601;48.042;12.240;2023-02-02T07:22:40;96572.69;;;5.64;66.53
12757;BME280;31601;48.042;12.240;2023-02-02T07:25:07;96574.31;;;5.37;66.78
12757;BME280;31601;48.042;12.240;2023-02-02T07:27:36;96571.66;;;5.56;66.08
12757;BME280;31601;48.042;12.240;2023-02-02T07:30:03;96573.09;;;5.69;66.22
12757;BME280;31601;48.042;12.240;2023-02-02T07:32:29;96577.44;;;5.50;66.74
12757;BME280;31601;48.042;12.240;2023-02-02T07:34:57;96575.13;;;5.75;66.03
12757;BME280;31601;48.042;12.240;2023-02-02T07:37:24;96594.16;;;5.48;65.93
12757;BME280;31601;48.042;12.240;2023-02-02T07:39:50;96589.84;;;5.29;67.12
12757;BME280;31601;48.042;12.240;2023-02-02T07:42:17;96585.97;;;5.33;67.41
12757;BME280;31601;48.042;12.240;2023-02-02T07:44:43;96595.94;;;5.47;67.05
12757;BME280;31601;48.042;12.240;2023-02-02T07:47:10;96589.44;;;5.24;67.12
12757;BME280;31601;48.042;12.240;2023-02-02T07:49:36;96586.94;;;5.32;66.90
12757;BME280;31601;48.042;12.240;2023-02-02T07:52:04;96597.41;;;5.50;66.61
12757;BME280;31601;48.042;12.240;2023-02-02T07:54:31;96597.78;;;5.27;66.87
12757;BME280;31601;48.042;12.240;2023-02-02T07:57:03;96590.53;;;5.21;67.17
12757;BME280;31601;48.042;12.240;2023-02-02T07:59:29;96596.69;;;5.57;66.66
12757;BME280;31601;48.042;12.240;2023-02-02T08:01:56;96590.41;;;5.23;67.30
12757;BME280;31601;48.042;12.240;2023-02-02T08:04:22;96588.72;;;5.69;66.90
12757;BME280;31601;48.042;12.240;2023-02-02T08:06:49;96596.91;;;5.74;66.63
12757;BME280;31601;48.042;12.240;2023-02-02T08:09:16;96610.50;;;5.68;67.19
12757;BME280;31601;48.042;12.240;2023-02-02T08:11:43;96602.78;;;5.76;66.54
12757;BME280;31601;48.042;12.240;2023-02-02T08:14:11;96605.50;;;5.47;67.43
12757;BME280;31601;48.042;12.240;2023-02-02T08:16:38;96602.56;;;5.69;67.27
12757;BME280;31601;48.042;12.240;2023-02-02T08:19:05;96608.69;;;5.78;66.90
12757;BME280;31601;48.042;12.240;2023-02-02T08:21:32;96606.31;;;5.57;67.86
12757;BME280;31601;48.042;12.240;2023-02-02T08:23:58;96612.88;;;5.51;68.05
12757;BME280;31601;48.042;12.240;2023-02-02T08:26:28;96607.69;;;5.51;68.72
12757;BME280;31601;48.042;12.240;2023-02-02T08:28:57;96626.59;;;5.53;68.66
12757;BME280;31601;48.042;12.240;2023-02-02T08:31:26;96643.31;;;5.51;68.87
12757;BME280;31601;48.042;12.240;2023-02-02T08:33:54;96634.06;;;5.66;68.51
12757;BME280;31601;48.042;12.240;2023-02-02T08:36:23;96639.53;;;5.26;69.37
12757;BME280;31601;48.042;12.240;2023-02-02T08:38:50;96635.28;;;5.72;68.39
12757;BME280;31601;48.042;12.240;2023-02-02T08:41:18;96645.22;;;5.86;67.76
12757;BME280;31601;48.042;12.240;2023-02-02T08:43:46;96646.41;;;6.02;67.69
12757;BME280;31601;48.042;12.240;2023-02-02T08:46:14;96645.75;;;5.90;67.53
12757;BME280;31601;48.042;12.240;2023-02-02T08:48:41;96644.78;;;5.63;68.48
12757;BME280;31601;48.042;12.240;2023-02-02T08:51:10;96648.16;;;5.73;68.08
12757;BME280;31601;48.042;12.240;2023-02-02T08:53:40;96630.56;;;5.85;67.49
12757;BME280;31601;48.042;12.240;2023-02-02T08:56:12;96655.06;;;5.92;67.53
12757;BME280;31601;48.042;12.240;2023-02-02T08:58:39;96656.59;;;5.85;67.09
12757;BME280;31601;48.042;12.240;2023-02-02T09:01:12;96647.44;;;5.81;67.01
12757;BME280;31601;48.042;12.240;2023-02-02T09:03:39;96647.25;;;5.92;67.19
12757;BME280;31601;48.042;12.240;2023-02-02T09:06:08;96650.72;;;5.83;67.23
12757;BME280;31601;48.042;12.240;2023-02-02T09:08:35;96644.69;;;6.20;67.19
12757;BME280;31601;48.042;12.240;2023-02-02T09:11:03;96643.31;;;6.16;66.23
12757;BME280;31601;48.042;12.240;2023-02-02T09:13:30;96634.34;;;6.01;66.98
12757;BME280;31601;48.042;12.240;2023-02-02T09:15:58;96634.25;;;6.20;66.73
12757;BME280;31601;48.042;12.240;2023-02-02T09:18:26;96628.69;;;5.78;67.12
12757;BME280;31601;48.042;12.240;2023-02-02T09:20:53;96619.28;;;6.04;66.54
12757;BME280;31601;48.042;12.240;2023-02-02T09:23:37;96624.50;;;6.22;66.39
12757;BME280;31601;48.042;12.240;2023-02-02T09:26:11;96635.34;;;6.18;65.97
12757;BME280;31601;48.042;12.240;2023-02-02T09:28:39;96637.53;;;6.22;66.42
12757;BME280;31601;48.042;12.240;2023-02-02T09:31:06;96646.78;;;6.35;65.90
12757;BME280;31601;48.042;12.240;2023-02-02T09:33:37;96649.66;;;6.14;66.39
12757;BME280;31601;48.042;12.240;2023-02-02T09:36:05;96649.38;;;6.35;66.07
12757;BME280;31601;48.042;12.240;2023-02-02T09:38:32;96653.44;;;6.19;66.74
12757;BME280;31601;48.042;12.240;2023-02-02T09:40:59;96651.28;;;6.60;65.52
12757;BME280;31601;48.042;12.240;2023-02-02T09:43:34;96660.16;;;6.68;64.95
12757;BME280;31601;48.042;12.240;2023-02-02T09:46:08;96646.66;;;6.54;65.39
12757;BME280;31601;48.042;12.240;2023-02-02T09:48:48;96666.09;;;6.42;66.08
12757;BME280;31601;48.042;12.240;2023-02-02T09:51:20;96650.38;;;6.70;65.01
12757;BME280;31601;48.042;12.240;2023-02-02T09:53:51;96662.81;;;6.40;64.78
12757;BME280;31601;48.042;12.240;2023-02-02T09:56:23;96667.97;;;6.22;65.19
12757;BME280;31601;48.042;12.240;2023-02-02T09:58:52;96666.91;;;6.60;64.63
12757;BME280;31601;48.042;12.240;2023-02-02T10:01:22;96670.72;;;6.48;64.75
12757;BME280;31601;48.042;12.240;2023-02-02T10:04:03;96667.09;;;6.31;65.45
12757;BME280;31601;48.042;12.240;2023-02-02T10:06:34;96685.69;;;6.18;66.20
12757;BME280;31601;48.042;12.240;2023-02-02T10:09:07;96682.84;;;6.12;66.46
12757;BME280;31601;48.042;12.240;2023-02-02T10:11:41;96675.72;;;6.14;65.97
12757;BME280;31601;48.042;12.240;2023-02-02T10:14:18;96696.88;;;5.91;67.56
12757;BME280;31601;48.042;12.240;2023-02-02T10:16:45;96684.84;;;5.80;67.45
12757;BME280;31601;48.042;12.240;2023-02-02T10:19:15;96699.81;;;5.68;67.30
12757;BME280;31601;48.042;12.240;2023-02-02T10:21:45;96692.53;;;5.82;66.57
12757;BME280;31601;48.042;12.240;2023-02-02T10:24:17;96684.75;;;5.72;67.15
12757;BME280;31601;48.042;12.240;2023-02-02T10:26:46;96681.81;;;6.22;66.18
12757;BME280;31601;48.042;12.240;2023-02-02T10:29:19;96683.56;;;6.32;66.39
12757;BME280;31601;48.042;12.240;2023-02-02T10:31:58;96681.44;;;6.17;66.50
12757;BME280;31601;48.042;12.240;2023-02-02T10:34:34;96679.03;;;6.06;66.42
12757;BME280;31601;48.042;12.240;2023-02-02T10:37:21;96677.72;;;5.82;66.91
12757;BME280;31601;48.042;12.240;2023-02-02T10:40:04;96676.94;;;6.37;65.93
12757;BME280;31601;48.042;12.240;2023-02-02T10:42:45;96664.94;;;6.72;65.49
12757;BME280;31601;48.042;12.240;2023-02-02T10:45:39;96681.25;;;6.28;65.92
12757;BME280;31601;48.042;12.240;2023-02-02T10:48:13;96676.09;;;5.81;66.74
12757;BME280;31601;48.042;12.240;2023-02-02T10:50:44;96678.69;;;6.19;66.55
12757;BME280;31601;48.042;12.240;2023-02-02T10:53:13;96679.50;;;6.19;66.15
12757;BME280;31601;48.042;12.240;2023-02-02T10:55:44;96673.19;;;6.22;65.82
12757;BME280;31601;48.042;12.240;2023-02-02T10:58:19;96671.06;;;6.53;65.00
12757;BME280;31601;48.042;12.240;2023-02-02T11:00:51;96664.06;;;6.36;65.25
12757;BME280;31601;48.042;12.240;2023-02-02T11:03:20;96668.47;;;6.35;65.02
12757;BME280;31601;48.042;12.240;2023-02-02T11:05:48;96663.09;;;6.37;64.83
12757;BME280;31601;48.042;12.240;2023-02-02T11:08:34;96664.75;;;6.56;64.76
12757;BME280;31601;48.042;12.240;2023-02-02T11:11:11;96646.53;;;6.74;64.52
12757;BME280;31601;48.042;12.240;2023-02-02T11:13:45;96664.69;;;6.66;64.34
12757;BME280;31601;48.042;12.240;2023-02-02T11:16:21;96671.88;;;6.36;64.88
12757;BME280;31601;48.042;12.240;2023-02-02T11:18:48;96673.97;;;6.32;65.12
12757;BME280;31601;48.042;12.240;2023-02-02T11:21:19;96670.34;;;6.79;64.66
12757;BME280;31601;48.042;12.240;2023-02-02T11:23:54;96667.00;;;6.51;65.16
12757;BME280;31601;48.042;12.240;2023-02-02T11:26:22;96668.66;;;6.88;63.78
12757;BME280;31601;48.042;12.240;2023-02-02T11:28:50;96667.88;;;6.59;64.16
12757;BME280;31601;48.042;12.240;2023-02-02T11:31:32;96667.44;;;6.82;64.32
12757;BME280;31601;48.042;12.240;2023-02-02T11:34:14;96657.81;;;6.82;63.99
12757;BME280;31601;48.042;12.240;2023-02-02T11:36:56;96658.13;;;6.97;63.22
12757;BME280;31601;48.042;12.240;2023-02-02T11:39:23;96658.28;;;6.78;63.30
12757;BME280;31601;48.042;12.240;2023-02-02T11:41:50;96655.06;;;6.84;63.80
12757;BME280;31601;48.042;12.240;2023-02-02T11:44:24;96661.78;;;6.87;63.30
12757;BME280;31601;48.042;12.240;2023-02-02T11:46:52;96665.59;;;6.92;63.06
12757;BME280;31601;48.042;12.240;2023-02-02T11:49:22;96656.66;;;6.77;64.06
12757;BME280;31601;48.042;12.240;2023-02-02T11:51:57;96654.41;;;6.82;63.86
12757;BME280;31601;48.042;12.240;2023-02-02T11:54:29;96655.66;;;6.78;64.33
12757;BME280;31601;48.042;12.240;2023-02-02T11:56:59;96654.56;;;6.98;64.06
12757;BME280;31601;48.042;12.240;2023-02-02T11:59:29;96660.34;;;6.56;65.62
12757;BME280;31601;48.042;12.240;2023-02-02T12:02:27;96665.78;;;6.45;65.42
12757;BME280;31601;48.042;12.240;2023-02-02T12:05:12;96660.53;;;6.91;64.84
12757;BME280;31601;48.042;12.240;2023-02-02T12:07:41;96649.50;;;6.79;64.83
12757;BME280;31601;48.042;12.240;2023-02-02T12:10:15;96668.88;;;6.58;64.95
12757;BME280;31601;48.042;12.240;2023-02-02T12:12:50;96655.97;;;6.75;64.52
12757;BME280;31601;48.042;12.240;2023-02-02T12:15:28;96676.91;;;6.65;65.38
12757;BME280;31601;48.042;12.240;2023-02-02T12:18:02;96669.38;;;6.62;65.79
12757;BME280;31601;48.042;12.240;2023-02-02T12:20:39;96671.03;;;6.63;65.75
12757;BME280;31601;48.042;12.240;2023-02-02T12:23:22;96665.50;;;6.84;64.99
12757;BME280;31601;48.042;12.240;2023-02-02T12:26:13;96675.25;;;6.46;65.88
12757;BME280;31601;48.042;12.240;2023-02-02T12:29:01;96675.69;;;6.59;65.79
12757;BME280;31601;48.042;12.240;2023-02-02T12:31:41;96669.84;;;6.30;66.84
12757;BME280;31601;48.042;12.240;2023-02-02T12:34:16;96667.13;;;6.67;66.45
12757;BME280;31601;48.042;12.240;2023-02-02T12:36:49;96678.69;;;6.65;66.57
12757;BME280;31601;48.042;12.240;2023-02-02T12:39:31;96676.72;;;6.49;66.61
12757;BME280;31601;48.042;12.240;2023-02-02T12:42:21;96679.44;;;6.57;66.44
12757;BME280;31601;48.042;12.240;2023-02-02T12:45:13;96674.78;;;6.33;67.34
12757;BME280;31601;48.042;12.240;2023-02-02T12:47:53;96663.94;;;6.55;67.24
12757;BME280;31601;48.042;12.240;2023-02-02T12:50:29;96676.72;;;6.31;67.41
12757;BME280;31601;48.042;12.240;2023-02-02T12:53:13;96675.19;;;6.56;66.51
12757;BME280;31601;48.042;12.240;2023-02-02T12:55:47;96677.59;;;6.21;67.25
12757;BME280;31601;48.042;12.240;2023-02-02T12:58:25;96675.66;;;6.23;66.84
12757;BME280;31601;48.042;12.240;2023-02-02T13:01:15;96678.88;;;6.35;66.76
12757;BME280;31601;48.042;12.240;2023-02-02T13:03:54;96675.72;;;6.32;67.10
12757;BME280;31601;48.042;12.240;2023-02-02T13:06:58;96677.91;;;6.36;67.26
12757;BME280;31601;48.042;12.240;2023-02-02T13:09:40;96681.56;;;6.43;67.01
12757;BME280;31601;48.042;12.240;2023-02-02T13:12:14;96693.03;;;6.05;67.78
12757;BME280;31601;48.042;12.240;2023-02-02T13:14:50;96687.19;;;5.83;68.70
12757;BME280;31601;48.042;12.240;2023-02-02T13:17:24;96693.16;;;6.31;68.42